Phoenix, Oregon
Current Conditions -  °F | °C
As of 7:53 PM on Wednesday 22 Oct 2014 (Local Time) from KMFR Reporting Station
Light Rain Light Rain  
Wind Chill: 61°   Ceiling: 9000
Heat Index: 61°   Visibility: 10mi
Dew Point: 54°   Wind: 0mph
Humidity: 78%   Direction: NA
Pressure: 29.86"   Gusts: NA
Location:  42.28°N, 122.82°W
Report Text: KMFR 230253Z 00000KT 10SM -RA FEW055 SCT075 OVC090 16/12 A2986 RMK AO2 RAB06 SLP108 P0002 60002 T01610122 53002
Loading
Personal Weather Stations






























Interactive Weather Map New forecast layout! Learn more

10-Day Weather Forecast

Advertisements
Track Severe Weather on mobile